Flight Track Log - Related Links

Times and Time Zones

All times are in EST time to prevent confusion due to time zone crossing. See the FLG3435 flight status page for this flight to view local times or setup timezone preferences in your user account.

Time Position Orientation Groundspeed Altitude Reporting Facility
EST Latitude Longitude Course Direction KTS MPH feet Rate Location/Type
Wed 10:46:19 AM 46.7803 -92.3183 224° Southwest 264 304 14,000  Level Minneapolis Center
Wed 10:47:20 AM 46.7219 -92.4000 224° Southwest 285 328 14,000 -1,230 Level Minneapolis Center
Wed 10:48:21 AM 46.6603 -92.4781 221° Southwest 300 345 11,500 -927 Descending Minneapolis Center
Wed 10:49:23 AM 46.5875 -92.5711 221° Southwest 329 379 12,100 1,122 Climbing Minneapolis Center
Wed 10:50:24 AM 46.5083 -92.6850 225° Southwest 367 422 13,800 927 Climbing Minneapolis Center
Wed 10:51:00 AM 46.3662 -92.4505 224° Southwest  Level Estimated
Wed 10:51:26 AM 46.4164 -92.7675 212° Southwest 391 450 14,000  Level Minneapolis Center
Wed 10:52:27 AM 46.3219 -92.8639 215° Southwest 408 470 14,000  Level Minneapolis Center
Wed 10:53:28 AM 46.2272 -92.9503 212° Southwest 408 470 14,000  Level Minneapolis Center
Wed 10:54:30 AM 46.1336 -93.0356 212° Southwest 404 465 14,000 49 Level Minneapolis Center
Wed 10:55:31 AM 46.0225 -93.1381 213° Southwest 400 460 14,100 49 Climbing Minneapolis Center
Wed 10:56:33 AM 45.9303 -93.2219 212° Southwest 398 458 14,100  Level Minneapolis Center
Wed 10:57:34 AM 45.8381 -93.3072 213° Southwest 396 456 14,100 -49 Level Minneapolis Center
Wed 10:58:35 AM 45.7456 -93.3914 212° Southwest 395 455 14,000 -281 Descending Minneapolis Center
Wed 10:59:42 AM 45.6533 -93.4742 212° Southwest 394 453 13,500 -516 Descending Minneapolis Center
Wed 11:00:43 AM 45.5364 -93.5658 209° Southwest 407 468 12,900 -634 Descending Minneapolis Center
Wed 11:01:45 AM 45.4258 -93.5333 168° South 415 478 12,200 -634 Descending Minneapolis Center
Wed 11:02:46 AM 45.3194 -93.4669 156° South 417 480 11,600 -537 Descending Minneapolis Center
Wed 11:03:48 AM 45.2142 -93.4100 159° South 406 467 11,100 -683 Descending Minneapolis Center
Wed 11:04:49 AM 45.1172 -93.3575 159° South 367 422 10,200 -1,073 Descending Minneapolis Center
Wed 11:05:51 AM 45.0375 -93.3097 157° South 313 360 8,900 -1,073 Descending Minneapolis Center
Wed 11:06:52 AM 44.9881 -93.2242 129° Southeast 285 328 8,000 -878 Descending Minneapolis Center
Wed 11:07:54 AM 44.9431 -93.1322 125° Southeast 280 322 7,100 -927 Descending Minneapolis Center
Wed 11:08:55 AM 44.9017 -93.0422 123° Southeast 272 313 6,100 -927 Descending Minneapolis Center
Wed 11:09:57 AM 44.8583 -92.9500 124° Southeast 279 321 5,200 -927 Descending Minneapolis Center
Wed 11:10:58 AM 44.8200 -92.8569 120° Southeast 212 244 4,200 -585 Descending Minneapolis Center
Wed 11:12:00 AM 44.7811 -92.8236 149° Southeast 194 223 4,000 -98 Descending Minneapolis Center
Wed 11:13:01 AM 44.7489 -92.8747 228° Southwest 181 208 4,000  Level Minneapolis Center
Wed 11:14:03 AM 44.7639 -92.9269 292° West 147 169 4,000  Level Minneapolis Center
Wed 11:15:04 AM 44.7853 -92.9753 302° West 146 168 4,000 -49 Level Minneapolis Center
Wed 11:16:06 AM 44.8078 -93.0244 303° West 151 174 3,900 -390 Descending Minneapolis Center
Wed 11:17:07 AM 44.8261 -93.0672 301° West 132 152 3,200 -780 Descending Minneapolis Center
Wed 11:18:09 AM 44.8456 -93.1119 302° West 112 129 2,300 -732 Descending Minneapolis Center
Wed 11:19:10 AM 44.8617 -93.1489 302° West 111 128 1,700 -590 Descending Minneapolis Center
Wed 11:21:00 AM 44.8667 -93.2167 298° West  Level FlightAware Approximate
Wed 11:28:00 AM 44.8820 -93.2218 298° West  Level Estimated

Login

Don't have an account? Register now (free) for customized features, flight alerts, and more!